createdAt,value
2018-08-06T00:00:57.907Z,0.00
2018-08-06T00:01:57.912Z,0.00
2018-08-06T00:02:57.916Z,0.00
2018-08-06T00:03:57.921Z,0.00
2018-08-06T00:04:57.925Z,0.00
2018-08-06T00:05:57.928Z,0.00
2018-08-06T00:06:57.933Z,0.00
2018-08-06T00:07:57.940Z,0.00
2018-08-06T00:08:57.942Z,0.00
2018-08-06T00:09:57.945Z,0.00
2018-08-06T00:10:57.953Z,0.00
2018-08-06T00:11:57.955Z,0.00
2018-08-06T00:12:57.958Z,0.00
2018-08-06T00:13:57.961Z,0.00
2018-08-06T00:14:57.966Z,0.00
2018-08-06T00:15:57.973Z,0.00
2018-08-06T00:16:57.974Z,0.00
2018-08-06T00:17:57.978Z,0.00
2018-08-06T00:18:57.983Z,0.00
2018-08-06T00:19:57.987Z,0.00
2018-08-06T00:20:57.991Z,0.00
2018-08-06T00:21:57.995Z,0.00
2018-08-06T00:22:57.999Z,0.00
2018-08-06T00:23:58.004Z,0.00
2018-08-06T00:24:58.009Z,0.00
2018-08-06T00:25:58.011Z,0.00
2018-08-06T00:26:58.015Z,0.00
2018-08-06T00:27:58.020Z,0.00
2018-08-06T00:28:58.024Z,0.00
2018-08-06T00:29:58.026Z,0.00
2018-08-06T00:30:58.031Z,0.00
2018-08-06T00:31:58.039Z,0.00
2018-08-06T00:32:58.039Z,0.00
2018-08-06T00:33:58.042Z,0.00
2018-08-06T00:34:58.049Z,0.00
2018-08-06T00:35:58.051Z,0.00
2018-08-06T00:36:58.056Z,0.00
2018-08-06T00:37:58.059Z,0.00
2018-08-06T00:38:58.062Z,0.00
2018-08-06T00:39:58.067Z,0.00
2018-08-06T00:40:58.072Z,0.00
2018-08-06T00:41:58.074Z,0.00
2018-08-06T00:42:58.080Z,0.00
2018-08-06T00:43:58.087Z,0.00
2018-08-06T00:44:58.090Z,0.00
2018-08-06T00:45:58.094Z,0.00
2018-08-06T00:46:58.095Z,0.00
2018-08-06T00:47:58.098Z,0.00
2018-08-06T00:48:58.102Z,0.00
2018-08-06T00:49:58.105Z,0.00
2018-08-06T00:50:58.111Z,0.00
2018-08-06T00:51:58.115Z,0.00
2018-08-06T00:52:58.132Z,0.00
2018-08-06T00:53:58.121Z,0.00
2018-08-06T00:54:58.125Z,0.00
2018-08-06T00:55:58.129Z,0.00
2018-08-06T00:56:58.135Z,0.00
2018-08-06T00:57:58.137Z,0.00
2018-08-06T00:58:58.142Z,0.00
2018-08-06T00:59:58.146Z,0.00
2018-08-06T01:00:58.149Z,0.00
2018-08-06T01:01:58.152Z,0.00
2018-08-06T01:02:58.157Z,0.00
2018-08-06T01:03:58.159Z,0.00
2018-08-06T01:04:58.164Z,0.00
2018-08-06T01:05:58.166Z,0.00
2018-08-06T01:06:58.171Z,0.00
2018-08-06T01:07:58.174Z,0.00
2018-08-06T01:08:58.179Z,0.00
2018-08-06T01:09:58.184Z,0.00
2018-08-06T01:10:58.186Z,0.00
2018-08-06T01:11:58.191Z,0.00
2018-08-06T01:12:58.198Z,0.00
2018-08-06T01:13:58.198Z,0.00
2018-08-06T01:14:58.202Z,0.00
2018-08-06T01:15:58.206Z,0.00
2018-08-06T01:16:58.214Z,0.00
2018-08-06T01:17:58.211Z,0.00
2018-08-06T01:18:58.217Z,0.00
2018-08-06T01:19:58.220Z,0.00
2018-08-06T01:20:58.225Z,0.00
2018-08-06T01:21:58.226Z,0.00
2018-08-06T01:22:58.234Z,0.00
2018-08-06T01:23:58.236Z,0.00
2018-08-06T01:24:58.239Z,0.00
2018-08-06T01:25:58.246Z,0.00
2018-08-06T01:26:58.247Z,0.00
2018-08-06T01:27:58.250Z,0.00
2018-08-06T01:28:58.253Z,0.00
2018-08-06T01:29:58.259Z,0.00
2018-08-06T01:30:58.261Z,0.00
2018-08-06T01:31:58.264Z,0.00
2018-08-06T01:32:58.268Z,0.00
2018-08-06T01:33:58.272Z,0.00
2018-08-06T01:34:58.276Z,0.00
2018-08-06T01:35:58.280Z,0.00
2018-08-06T01:36:58.283Z,0.00
2018-08-06T01:37:58.286Z,0.00
2018-08-06T01:38:58.290Z,0.00
2018-08-06T01:39:58.294Z,0.00
2018-08-06T01:40:58.298Z,0.00
2018-08-06T01:41:58.301Z,0.00
2018-08-06T01:42:58.305Z,0.00
2018-08-06T01:43:58.308Z,0.00
2018-08-06T01:44:58.313Z,0.00
2018-08-06T01:45:58.320Z,0.00
2018-08-06T01:46:58.320Z,0.00
2018-08-06T01:47:58.323Z,0.00
2018-08-06T01:48:58.326Z,0.00
2018-08-06T01:49:58.332Z,0.00
2018-08-06T01:50:58.333Z,0.00
2018-08-06T01:51:58.338Z,0.00
2018-08-06T01:52:58.341Z,0.00
2018-08-06T01:53:58.345Z,0.00
2018-08-06T01:54:58.349Z,0.00
2018-08-06T01:55:58.352Z,0.00
2018-08-06T01:56:58.355Z,0.00
2018-08-06T01:57:58.357Z,0.00
2018-08-06T01:58:58.366Z,0.00
2018-08-06T01:59:58.371Z,0.00
2018-08-06T02:00:58.370Z,0.00
2018-08-06T02:01:58.373Z,0.00
2018-08-06T02:02:58.375Z,0.00
2018-08-06T02:03:58.380Z,0.00
2018-08-06T02:04:58.384Z,0.00
2018-08-06T02:05:58.386Z,0.00
2018-08-06T02:06:58.389Z,0.00
2018-08-06T02:07:58.392Z,0.00
2018-08-06T02:08:58.397Z,0.00
2018-08-06T02:09:58.399Z,0.00
2018-08-06T02:10:58.404Z,0.00
2018-08-06T02:11:58.408Z,0.00
2018-08-06T02:12:58.411Z,0.00
2018-08-06T02:13:58.415Z,0.00
2018-08-06T02:14:58.418Z,0.00
2018-08-06T02:15:58.423Z,0.00
2018-08-06T02:16:58.425Z,0.00
2018-08-06T02:17:58.428Z,0.00
2018-08-06T02:18:58.432Z,0.00
2018-08-06T02:19:58.436Z,0.00
2018-08-06T02:20:58.439Z,0.00
2018-08-06T02:21:58.442Z,0.00
2018-08-06T02:22:58.445Z,0.00
2018-08-06T02:23:58.449Z,0.00
2018-08-06T02:24:58.452Z,0.00
2018-08-06T02:25:58.455Z,0.00
2018-08-06T02:26:58.458Z,0.00
2018-08-06T02:27:58.462Z,0.00
2018-08-06T02:28:58.467Z,0.00
2018-08-06T02:29:58.471Z,0.00
2018-08-06T02:30:58.473Z,0.00
2018-08-06T02:31:58.476Z,0.00
2018-08-06T02:32:58.480Z,0.00
2018-08-06T02:33:58.481Z,0.00
2018-08-06T02:34:58.488Z,0.00
2018-08-06T02:35:58.490Z,0.00
2018-08-06T02:36:58.493Z,0.00
2018-08-06T02:37:58.497Z,0.00
2018-08-06T02:38:58.499Z,0.00
2018-08-06T02:39:58.503Z,0.00
2018-08-06T02:40:58.507Z,0.00
2018-08-06T02:41:58.509Z,0.00
2018-08-06T02:42:58.512Z,0.00
2018-08-06T02:43:58.516Z,0.00
2018-08-06T02:44:58.519Z,0.00
2018-08-06T02:45:58.524Z,0.00
2018-08-06T02:46:58.527Z,0.00
2018-08-06T02:47:58.529Z,0.00
2018-08-06T02:48:58.532Z,0.00
2018-08-06T02:49:58.534Z,0.00
2018-08-06T02:50:58.538Z,0.00
2018-08-06T02:51:58.542Z,0.00
2018-08-06T02:52:58.546Z,0.00
2018-08-06T02:53:58.556Z,0.00
2018-08-06T02:54:58.552Z,0.00
2018-08-06T02:55:58.555Z,0.00
2018-08-06T02:56:58.559Z,0.00
2018-08-06T02:57:58.560Z,0.00
2018-08-06T02:58:58.564Z,0.00
2018-08-06T02:59:58.567Z,0.00
2018-08-06T03:00:58.573Z,0.00
2018-08-06T03:01:58.573Z,0.00
2018-08-06T03:02:58.577Z,0.00
2018-08-06T03:03:58.579Z,0.00
2018-08-06T03:04:58.582Z,0.00
2018-08-06T03:05:58.585Z,0.00
2018-08-06T03:06:58.589Z,0.00
2018-08-06T03:07:58.592Z,0.00
2018-08-06T03:08:58.594Z,0.00
2018-08-06T03:09:58.625Z,0.00
2018-08-06T03:10:58.601Z,0.00
2018-08-06T03:11:58.605Z,0.00
2018-08-06T03:12:58.608Z,0.00
2018-08-06T03:13:58.611Z,0.00
2018-08-06T03:14:58.614Z,0.00
2018-08-06T03:15:58.620Z,0.00
2018-08-06T03:16:58.633Z,0.00
2018-08-06T03:17:58.622Z,0.00
2018-08-06T03:18:58.625Z,0.00
2018-08-06T03:19:58.628Z,0.00
2018-08-06T03:20:58.634Z,0.00
2018-08-06T03:21:58.637Z,0.00
2018-08-06T03:22:58.638Z,0.00
2018-08-06T03:23:58.641Z,0.00
2018-08-06T03:24:58.645Z,0.00
2018-08-06T03:25:58.646Z,0.00
2018-08-06T03:26:58.650Z,0.00
2018-08-06T03:27:58.654Z,0.00
2018-08-06T03:28:58.656Z,0.00
2018-08-06T03:29:58.659Z,0.00
2018-08-06T03:30:58.661Z,0.00
2018-08-06T03:31:58.664Z,4.00
2018-08-06T03:32:58.667Z,4.00
2018-08-06T03:33:58.671Z,0.00
2018-08-06T03:34:58.674Z,0.00
2018-08-06T03:35:58.676Z,4.00
2018-08-06T03:36:58.680Z,0.00
2018-08-06T03:37:58.683Z,4.00
2018-08-06T03:38:58.686Z,4.00
2018-08-06T03:39:58.691Z,4.00
2018-08-06T03:40:58.697Z,4.00
2018-08-06T03:41:58.698Z,4.00
2018-08-06T03:42:58.697Z,8.00
2018-08-06T03:43:58.701Z,8.00
2018-08-06T03:44:58.703Z,8.00
2018-08-06T03:45:58.705Z,12.00
2018-08-06T03:46:58.708Z,12.00
2018-08-06T03:47:58.712Z,20.00
2018-08-06T03:48:58.715Z,20.00
2018-08-06T03:49:58.716Z,24.00
2018-08-06T03:50:58.721Z,24.00
2018-08-06T03:51:58.724Z,28.00
2018-08-06T03:52:58.726Z,32.00
2018-08-06T03:53:58.729Z,40.00
2018-08-06T03:54:58.731Z,44.00
2018-08-06T03:55:58.736Z,44.00
2018-08-06T03:56:58.738Z,48.00
2018-08-06T03:57:58.741Z,44.00
2018-08-06T03:58:58.743Z,44.00
2018-08-06T03:59:58.745Z,40.00
2018-08-06T04:00:58.749Z,44.00
2018-08-06T04:01:58.754Z,48.00
2018-08-06T04:02:58.754Z,48.00
2018-08-06T04:03:58.757Z,52.00
2018-08-06T04:04:58.761Z,48.00
2018-08-06T04:05:58.763Z,52.00
2018-08-06T04:06:58.766Z,52.00
2018-08-06T04:07:58.770Z,56.00
2018-08-06T04:08:58.772Z,60.00
2018-08-06T04:09:58.775Z,64.00
2018-08-06T04:10:58.779Z,72.00
2018-08-06T04:11:58.781Z,72.00
2018-08-06T04:12:58.784Z,80.00
2018-08-06T04:13:58.789Z,88.00
2018-08-06T04:14:58.792Z,96.00
2018-08-06T04:15:58.792Z,100.00
2018-08-06T04:16:58.796Z,112.00
2018-08-06T04:17:58.797Z,120.00
2018-08-06T04:18:58.808Z,128.00
2018-08-06T04:19:58.803Z,140.00
2018-08-06T04:20:58.806Z,148.00
2018-08-06T04:21:58.813Z,160.00
2018-08-06T04:22:58.813Z,168.00
2018-08-06T04:23:58.815Z,176.00
2018-08-06T04:24:58.817Z,188.00
2018-08-06T04:25:58.820Z,196.00
2018-08-06T04:26:58.824Z,212.00
2018-08-06T04:27:58.826Z,224.00
2018-08-06T04:28:58.829Z,236.00
2018-08-06T04:29:58.832Z,252.00
2018-08-06T04:30:58.834Z,272.00
2018-08-06T04:31:58.837Z,284.00
2018-08-06T04:32:58.894Z,304.00
2018-08-06T04:33:58.842Z,320.00
2018-08-06T04:34:58.846Z,336.00
2018-08-06T04:35:58.851Z,356.00
2018-08-06T04:36:58.851Z,372.00
2018-08-06T04:37:58.854Z,396.00
2018-08-06T04:38:58.858Z,416.00
2018-08-06T04:39:58.860Z,444.00
2018-08-06T04:40:58.864Z,472.00
2018-08-06T04:41:58.865Z,504.00
2018-08-06T04:42:58.868Z,536.00
2018-08-06T04:43:58.871Z,572.00
2018-08-06T04:44:58.875Z,608.00
2018-08-06T04:45:58.879Z,644.00
2018-08-06T04:46:58.880Z,676.00
2018-08-06T04:47:58.883Z,704.00
2018-08-06T04:48:58.884Z,724.00
2018-08-06T04:49:58.887Z,740.00
2018-08-06T04:50:58.891Z,752.00
2018-08-06T04:51:58.893Z,760.00
2018-08-06T04:52:58.897Z,768.00
2018-08-06T04:53:58.899Z,776.00
2018-08-06T04:54:58.902Z,784.00
2018-08-06T04:55:58.904Z,792.00
2018-08-06T04:56:58.908Z,808.00
2018-08-06T04:57:58.933Z,812.00
2018-08-06T04:58:58.913Z,824.00
2018-08-06T04:59:58.917Z,840.00
2018-08-06T05:00:58.919Z,848.00
2018-08-06T05:01:58.925Z,860.00
2018-08-06T05:02:58.925Z,876.00
2018-08-06T05:03:58.927Z,900.00
2018-08-06T05:04:58.932Z,924.00
2018-08-06T05:05:58.933Z,956.00
2018-08-06T05:06:58.966Z,988.00
2018-08-06T05:07:58.939Z,1024.00
2018-08-06T05:08:58.943Z,1064.00
2018-08-06T05:09:58.946Z,1104.00
2018-08-06T05:10:58.949Z,1136.00
2018-08-06T05:11:58.969Z,1188.00
2018-08-06T05:12:58.954Z,1224.00
2018-08-06T05:13:58.957Z,1272.00
2018-08-06T05:14:58.965Z,1336.00
2018-08-06T05:15:58.963Z,1400.00
2018-08-06T05:16:58.968Z,1468.00
2018-08-06T05:17:58.970Z,1524.00
2018-08-06T05:18:58.972Z,1540.00
2018-08-06T05:19:58.977Z,1484.00
2018-08-06T05:20:58.980Z,1424.00
2018-08-06T05:21:58.986Z,1368.00
2018-08-06T05:22:58.985Z,1336.00
2018-08-06T05:23:58.988Z,1292.00
2018-08-06T05:24:58.993Z,1280.00
2018-08-06T05:25:58.995Z,1240.00
2018-08-06T05:26:58.999Z,1188.00
2018-08-06T05:27:59.003Z,1152.00
2018-08-06T05:28:59.006Z,1140.00
2018-08-06T05:29:59.006Z,1136.00
2018-08-06T05:30:59.012Z,1140.00
2018-08-06T05:31:59.015Z,1140.00
2018-08-06T05:32:59.019Z,1144.00
2018-08-06T05:33:59.020Z,1152.00
2018-08-06T05:34:59.024Z,1152.00
2018-08-06T05:35:59.027Z,1152.00
2018-08-06T05:36:59.029Z,1156.00
2018-08-06T05:37:59.036Z,1180.00
2018-08-06T05:38:59.036Z,1200.00
2018-08-06T05:39:59.044Z,1232.00
2018-08-06T05:40:59.042Z,1268.00
2018-08-06T05:41:59.049Z,1284.00
2018-08-06T05:42:59.049Z,1304.00
2018-08-06T05:43:59.053Z,1336.00
2018-08-06T05:44:59.055Z,1312.00
2018-08-06T05:45:59.058Z,1300.00
2018-08-06T05:46:59.062Z,1292.00
2018-08-06T05:47:59.064Z,1320.00
2018-08-06T05:48:59.068Z,1368.00
2018-08-06T05:49:59.070Z,1416.00
2018-08-06T05:50:59.073Z,1444.00
2018-08-06T05:51:59.077Z,1496.00
2018-08-06T05:52:59.081Z,1596.00
2018-08-06T05:53:59.083Z,1672.00
2018-08-06T05:54:59.087Z,1744.00
2018-08-06T05:55:59.090Z,1824.00
2018-08-06T05:56:59.094Z,1852.00
2018-08-06T05:57:59.096Z,1852.00
2018-08-06T05:58:59.099Z,1960.00
2018-08-06T05:59:59.102Z,2060.00
2018-08-06T06:00:59.108Z,2100.00
2018-08-06T06:01:59.109Z,2216.00
2018-08-06T06:02:59.113Z,2280.00
2018-08-06T06:03:59.116Z,2372.00
2018-08-06T06:04:59.152Z,2544.00
2018-08-06T06:05:59.170Z,2468.00
2018-08-06T06:06:59.180Z,2508.00
2018-08-06T06:07:59.227Z,2624.00
2018-08-06T06:08:59.132Z,2844.00
2018-08-06T06:09:59.136Z,3040.00
2018-08-06T06:10:59.216Z,3148.00
2018-08-06T06:11:59.213Z,3252.00
2018-08-06T06:12:59.214Z,3296.00
2018-08-06T06:13:59.148Z,3256.00
2018-08-06T06:14:59.150Z,3288.00
2018-08-06T06:15:59.189Z,3224.00
2018-08-06T06:16:59.159Z,3140.00
2018-08-06T06:17:59.190Z,3016.00
2018-08-06T06:18:59.166Z,2976.00
2018-08-06T06:19:59.169Z,3012.00
2018-08-06T06:20:59.174Z,3140.00
2018-08-06T06:21:59.176Z,2752.00
2018-08-06T06:22:59.180Z,2884.00
2018-08-06T06:23:59.182Z,3120.00
2018-08-06T06:24:59.188Z,3072.00
2018-08-06T06:25:59.189Z,2960.00
2018-08-06T06:26:59.194Z,2320.00
2018-08-06T06:27:59.197Z,2420.00
2018-08-06T06:28:59.203Z,2292.00
2018-08-06T06:29:59.204Z,2172.00
2018-08-06T06:30:59.208Z,2032.00
2018-08-06T06:31:59.212Z,2064.00
2018-08-06T06:32:59.215Z,2264.00
2018-08-06T06:33:59.218Z,2464.00
2018-08-06T06:34:59.222Z,2660.00
2018-08-06T06:35:59.225Z,2656.00
2018-08-06T06:36:59.229Z,2668.00
2018-08-06T06:37:59.233Z,2856.00
2018-08-06T06:38:59.236Z,3184.00
2018-08-06T06:39:59.239Z,3528.00
2018-08-06T06:40:59.302Z,3632.00
2018-08-06T06:41:59.248Z,3620.00
2018-08-06T06:42:59.251Z,3684.00
2018-08-06T06:43:59.254Z,3812.00
2018-08-06T06:44:59.258Z,3880.00
2018-08-06T06:45:59.260Z,3896.00
2018-08-06T06:46:59.267Z,3976.00
2018-08-06T06:47:59.268Z,3980.00
2018-08-06T06:48:59.350Z,3992.00
2018-08-06T06:49:59.279Z,4008.00
2018-08-06T06:50:59.585Z,4064.00
2018-08-06T06:51:59.284Z,4084.00
2018-08-06T06:52:59.291Z,4100.00
2018-08-06T06:53:59.291Z,4136.00
2018-08-06T06:54:59.296Z,4164.00
2018-08-06T06:55:59.300Z,4192.00
2018-08-06T06:56:59.304Z,4228.00
2018-08-06T06:57:59.308Z,4256.00
2018-08-06T06:58:59.312Z,4300.00
2018-08-06T06:59:59.373Z,4368.00
2018-08-06T07:00:59.321Z,4416.00
2018-08-06T07:01:59.325Z,4472.00
2018-08-06T07:02:59.342Z,4516.00
2018-08-06T07:03:59.333Z,4568.00
2018-08-06T07:04:59.336Z,4628.00
2018-08-06T07:05:59.340Z,4744.00
2018-08-06T07:06:59.345Z,11916.00
2018-08-06T07:07:59.350Z,35936.00
2018-08-06T07:08:59.356Z,47456.00
2018-08-06T07:09:59.359Z,41760.00
2018-08-06T07:10:59.686Z,40192.00
2018-08-06T07:11:59.575Z,30400.00
2018-08-06T07:12:59.459Z,17312.00
2018-08-06T07:13:59.529Z,24736.00
2018-08-06T07:14:59.394Z,42464.00
2018-08-06T07:15:59.632Z,48576.00
2018-08-06T07:16:59.493Z,34560.00
2018-08-06T07:17:59.481Z,49344.00
2018-08-06T07:18:59.422Z,46016.00
2018-08-06T07:19:59.491Z,28960.00
2018-08-06T07:20:59.440Z,15392.00
2018-08-06T07:21:59.450Z,9200.00
2018-08-06T07:22:59.455Z,23552.00
2018-08-06T07:23:59.468Z,32544.00
2018-08-06T07:24:59.475Z,30752.00
2018-08-06T07:25:59.535Z,19104.00
2018-08-06T07:26:59.489Z,17632.00
2018-08-06T07:27:59.497Z,35072.00
2018-08-06T07:28:59.504Z,34624.00
2018-08-06T07:29:59.513Z,19232.00
2018-08-06T07:30:59.520Z,8148.00
2018-08-06T07:31:59.650Z,6204.00
2018-08-06T07:32:59.600Z,7060.00
2018-08-06T07:33:59.544Z,7076.00
2018-08-06T07:34:59.551Z,14944.00
2018-08-06T07:35:59.562Z,24384.00
2018-08-06T07:36:59.569Z,25376.00
2018-08-06T07:37:59.576Z,20384.00
2018-08-06T07:38:59.582Z,11480.00
2018-08-06T07:39:59.634Z,10992.00
2018-08-06T07:40:59.624Z,12128.00
2018-08-06T07:41:59.623Z,7280.00
2018-08-06T07:42:59.639Z,7580.00
2018-08-06T07:43:59.642Z,7632.00
2018-08-06T07:44:59.648Z,6088.00
2018-08-06T07:45:59.655Z,6012.00
2018-08-06T07:46:59.685Z,7492.00
2018-08-06T07:47:59.673Z,7488.00
2018-08-06T07:48:59.999Z,9916.00
2018-08-06T07:49:59.760Z,11932.00
2018-08-06T07:51:00.205Z,6836.00
2018-08-06T07:51:59.961Z,7500.00
2018-08-06T07:52:59.708Z,8948.00
2018-08-06T07:53:59.963Z,7300.00
2018-08-06T07:54:59.907Z,7356.00
2018-08-06T07:56:00.079Z,6944.00
2018-08-06T07:56:59.897Z,16320.00
2018-08-06T07:57:59.790Z,9500.00
2018-08-06T07:59:00.035Z,6720.00
2018-08-06T07:59:59.839Z,6568.00
2018-08-06T08:00:59.928Z,10088.00
2018-08-06T08:01:59.775Z,19232.00
2018-08-06T08:02:59.765Z,35008.00
2018-08-06T08:03:59.781Z,39072.00
2018-08-06T08:04:59.826Z,37728.00
2018-08-06T08:05:59.801Z,42944.00
2018-08-06T08:06:59.864Z,45504.00
2018-08-06T08:07:59.833Z,25344.00
2018-08-06T08:08:59.808Z,16288.00
2018-08-06T08:09:59.814Z,39680.00
2018-08-06T08:10:59.821Z,25376.00
2018-08-06T08:11:59.854Z,32640.00
2018-08-06T08:12:59.921Z,26624.00
2018-08-06T08:13:59.968Z,13108.00
2018-08-06T08:14:59.857Z,21120.00
2018-08-06T08:15:59.868Z,40096.00
2018-08-06T08:16:59.879Z,42656.00
2018-08-06T08:17:59.888Z,19392.00
2018-08-06T08:18:59.897Z,17600.00
2018-08-06T08:19:59.940Z,35520.00
2018-08-06T08:20:59.920Z,56096.00
2018-08-06T08:21:59.931Z,54208.00
2018-08-06T08:22:59.940Z,41152.00
2018-08-06T08:23:59.953Z,37632.00
2018-08-06T08:24:59.964Z,42080.00
2018-08-06T08:26:00.017Z,47616.00
2018-08-06T08:26:59.987Z,50496.00
2018-08-06T08:27:59.999Z,42208.00
2018-08-06T08:29:00.013Z,32608.00
2018-08-06T08:30:00.328Z,15104.00
2018-08-06T08:31:00.036Z,20064.00
2018-08-06T08:32:00.049Z,27616.00
2018-08-06T08:33:00.061Z,45664.00
2018-08-06T08:34:00.137Z,32960.00
2018-08-06T08:35:00.098Z,24544.00
2018-08-06T08:36:00.096Z,24704.00
2018-08-06T08:37:00.109Z,23776.00
2018-08-06T08:38:00.145Z,44000.00
2018-08-06T08:39:00.132Z,38400.00
2018-08-06T08:40:00.145Z,27936.00
2018-08-06T08:41:00.157Z,33184.00
2018-08-06T08:42:00.168Z,50528.00
2018-08-06T08:43:00.180Z,54400.00
2018-08-06T08:44:00.192Z,51424.00
2018-08-06T08:45:00.205Z,50528.00
2018-08-06T08:46:00.218Z,52384.00
2018-08-06T08:47:00.236Z,52288.00
2018-08-06T08:48:00.246Z,54432.00
2018-08-06T08:49:00.260Z,54976.00
2018-08-06T08:50:00.275Z,47840.00
2018-08-06T08:51:00.288Z,49728.00
2018-08-06T08:52:00.300Z,54880.00
2018-08-06T08:53:00.316Z,47744.00
2018-08-06T08:54:00.329Z,50144.00
2018-08-06T08:55:00.343Z,47296.00
2018-08-06T08:56:00.360Z,44992.00
2018-08-06T08:57:00.373Z,48192.00
2018-08-06T08:58:00.387Z,45920.00
2018-08-06T08:59:00.506Z,48160.00
2018-08-06T09:00:00.417Z,51456.00
2018-08-06T09:01:00.431Z,49792.00
2018-08-06T09:02:00.445Z,46304.00
2018-08-06T09:03:00.463Z,42528.00
2018-08-06T09:04:00.474Z,44448.00
2018-08-06T09:05:00.489Z,40576.00
2018-08-06T09:06:00.503Z,47840.00
2018-08-06T09:07:00.517Z,49056.00
2018-08-06T09:08:00.537Z,46656.00
2018-08-06T09:09:01.015Z,46432.00
2018-08-06T09:10:00.840Z,44992.00
2018-08-06T09:11:00.776Z,47424.00
2018-08-06T09:12:00.903Z,46176.00
2018-08-06T09:13:00.605Z,46432.00
2018-08-06T09:14:00.649Z,46528.00
2018-08-06T09:15:00.634Z,46464.00
2018-08-06T09:16:00.648Z,46368.00
2018-08-06T09:17:00.664Z,47744.00
2018-08-06T09:18:00.675Z,48640.00
2018-08-06T09:19:00.692Z,46592.00
2018-08-06T09:20:00.706Z,46656.00
2018-08-06T09:21:00.720Z,44736.00
2018-08-06T09:22:00.739Z,44640.00
2018-08-06T09:23:00.752Z,44160.00
2018-08-06T09:24:00.765Z,44096.00
2018-08-06T09:25:00.780Z,45664.00
2018-08-06T09:26:00.841Z,46176.00
2018-08-06T09:27:00.810Z,44448.00
2018-08-06T09:28:00.825Z,43968.00
2018-08-06T09:29:00.840Z,44928.00
2018-08-06T09:30:00.897Z,42976.00
2018-08-06T09:31:00.872Z,40768.00
2018-08-06T09:32:00.887Z,39488.00
2018-08-06T09:33:00.907Z,41280.00
2018-08-06T09:34:01.212Z,40224.00
2018-08-06T09:35:00.933Z,38272.00
2018-08-06T09:36:00.950Z,39520.00
2018-08-06T09:37:00.965Z,39552.00
2018-08-06T09:38:00.979Z,37664.00
2018-08-06T09:39:00.995Z,36576.00
2018-08-06T09:40:01.012Z,37696.00
2018-08-06T09:41:01.026Z,37536.00
2018-08-06T09:42:01.046Z,33856.00
2018-08-06T09:43:01.240Z,32416.00
2018-08-06T09:44:01.115Z,33792.00
2018-08-06T09:45:01.087Z,33312.00
2018-08-06T09:46:01.102Z,32928.00
2018-08-06T09:47:01.117Z,35168.00
2018-08-06T09:48:01.131Z,34432.00
2018-08-06T09:49:01.146Z,30944.00
2018-08-06T09:50:01.162Z,30848.00
2018-08-06T09:51:01.177Z,32992.00
2018-08-06T09:52:01.191Z,31680.00
2018-08-06T09:53:01.229Z,31264.00
2018-08-06T09:54:01.462Z,30208.00
2018-08-06T09:55:01.439Z,30432.00
2018-08-06T09:56:01.252Z,28992.00
2018-08-06T09:57:01.292Z,28992.00
2018-08-06T09:58:01.366Z,28256.00
2018-08-06T09:59:01.306Z,28320.00
2018-08-06T10:00:01.389Z,27712.00
2018-08-06T10:01:01.326Z,26432.00
2018-08-06T10:02:01.342Z,26816.00
2018-08-06T10:03:01.356Z,24800.00
2018-08-06T10:04:01.374Z,23744.00
2018-08-06T10:05:01.386Z,23392.00
2018-08-06T10:06:01.481Z,24000.00
2018-08-06T10:07:01.415Z,22720.00
2018-08-06T10:08:01.429Z,22080.00
2018-08-06T10:09:01.607Z,23328.00
2018-08-06T10:10:01.463Z,22336.00
2018-08-06T10:11:01.475Z,22624.00
2018-08-06T10:12:01.546Z,21504.00
2018-08-06T10:13:01.502Z,21152.00
2018-08-06T10:14:01.515Z,19840.00
2018-08-06T10:15:01.531Z,19616.00
2018-08-06T10:16:01.545Z,20128.00
2018-08-06T10:17:01.559Z,21152.00
2018-08-06T10:18:01.574Z,18176.00
2018-08-06T10:19:01.613Z,17696.00
2018-08-06T10:20:01.602Z,18912.00
2018-08-06T10:21:01.828Z,20320.00
2018-08-06T10:22:01.633Z,19488.00
2018-08-06T10:23:01.646Z,20608.00
2018-08-06T10:24:01.661Z,19392.00
2018-08-06T10:25:01.675Z,21216.00
2018-08-06T10:26:01.689Z,22752.00
2018-08-06T10:27:01.704Z,13952.00
2018-08-06T10:28:01.719Z,10904.00
2018-08-06T10:29:01.735Z,10220.00
2018-08-06T10:30:01.834Z,9692.00
2018-08-06T10:31:01.763Z,9468.00
2018-08-06T10:32:01.778Z,9340.00
2018-08-06T10:33:01.795Z,9260.00
2018-08-06T10:34:01.806Z,9088.00
2018-08-06T10:35:01.824Z,9068.00
2018-08-06T10:36:01.835Z,8952.00
2018-08-06T10:37:01.866Z,8832.00
2018-08-06T10:38:01.865Z,8672.00
2018-08-06T10:39:01.882Z,8692.00
2018-08-06T10:40:02.109Z,8628.00
2018-08-06T10:41:01.949Z,8496.00
2018-08-06T10:42:01.925Z,8480.00
2018-08-06T10:43:01.938Z,8404.00
2018-08-06T10:44:01.953Z,8424.00
2018-08-06T10:45:01.967Z,8324.00
2018-08-06T10:46:01.981Z,8216.00
2018-08-06T10:47:02.269Z,8076.00
2018-08-06T10:48:02.010Z,8168.00
2018-08-06T10:49:02.026Z,8224.00
2018-08-06T10:50:02.039Z,8228.00
2018-08-06T10:51:02.229Z,8248.00
2018-08-06T10:52:02.223Z,8296.00
2018-08-06T10:53:02.081Z,8136.00
2018-08-06T10:54:02.343Z,7996.00
2018-08-06T10:55:02.113Z,8048.00
2018-08-06T10:56:02.163Z,8028.00
2018-08-06T10:57:02.139Z,8016.00
2018-08-06T10:58:02.351Z,8160.00
2018-08-06T10:59:02.217Z,8180.00
2018-08-06T11:00:02.305Z,8272.00
2018-08-06T11:01:02.400Z,8212.00
2018-08-06T11:02:02.635Z,8264.00
2018-08-06T11:03:02.409Z,8284.00
2018-08-06T11:04:02.723Z,8316.00
2018-08-06T11:05:02.545Z,8376.00
2018-08-06T11:06:02.434Z,8384.00
2018-08-06T11:07:03.069Z,8304.00
2018-08-06T11:08:02.401Z,8324.00
2018-08-06T11:09:02.521Z,8324.00
2018-08-06T11:10:02.418Z,8264.00
2018-08-06T11:11:02.436Z,8388.00
2018-08-06T11:12:02.514Z,8420.00
2018-08-06T11:13:02.440Z,8484.00
2018-08-06T11:14:02.547Z,8540.00
2018-08-06T11:15:02.488Z,8652.00
2018-08-06T11:16:02.462Z,8720.00
2018-08-06T11:17:02.530Z,8828.00
2018-08-06T11:18:02.526Z,8788.00
2018-08-06T11:19:02.453Z,8788.00
2018-08-06T11:20:02.468Z,8840.00
2018-08-06T11:21:02.481Z,8884.00
2018-08-06T11:22:02.495Z,9012.00
2018-08-06T11:23:02.509Z,9172.00
2018-08-06T11:24:02.523Z,9256.00
2018-08-06T11:25:02.538Z,9148.00
2018-08-06T11:26:02.554Z,8884.00
2018-08-06T11:27:02.565Z,8796.00
2018-08-06T11:28:02.586Z,8776.00
2018-08-06T11:29:02.594Z,8768.00
2018-08-06T11:30:02.607Z,8760.00
2018-08-06T11:31:02.641Z,8688.00
2018-08-06T11:32:02.701Z,8680.00
2018-08-06T11:33:02.647Z,8724.00
2018-08-06T11:34:02.661Z,8796.00
2018-08-06T11:35:02.675Z,8644.00
2018-08-06T11:36:02.690Z,8684.00
2018-08-06T11:37:02.704Z,8612.00
2018-08-06T11:38:02.715Z,8400.00
2018-08-06T11:39:02.731Z,8540.00
2018-08-06T11:40:02.750Z,7892.00
2018-08-06T11:41:02.873Z,7928.00
2018-08-06T11:42:02.860Z,8136.00
2018-08-06T11:43:02.785Z,8204.00
2018-08-06T11:44:02.800Z,7832.00
2018-08-06T11:45:02.814Z,8024.00
2018-08-06T11:46:02.827Z,7880.00
2018-08-06T11:47:02.842Z,8068.00
2018-08-06T11:48:02.855Z,7960.00
2018-08-06T11:49:02.871Z,7752.00
2018-08-06T11:50:02.888Z,7684.00
2018-08-06T11:51:02.897Z,7692.00
2018-08-06T11:52:02.912Z,7680.00
2018-08-06T11:53:03.045Z,7704.00
2018-08-06T11:54:02.984Z,7600.00
2018-08-06T11:55:02.954Z,7644.00
2018-08-06T11:56:02.966Z,7860.00
2018-08-06T11:57:02.986Z,7824.00
2018-08-06T11:58:03.441Z,8312.00
2018-08-06T11:59:03.060Z,8292.00
2018-08-06T12:00:03.021Z,8348.00
2018-08-06T12:01:03.039Z,8188.00
2018-08-06T12:02:03.185Z,8608.00
2018-08-06T12:03:03.062Z,8576.00
2018-08-06T12:04:03.077Z,8728.00
2018-08-06T12:05:03.109Z,8624.00
2018-08-06T12:06:03.102Z,8524.00
2018-08-06T12:07:03.117Z,8772.00
2018-08-06T12:08:03.131Z,8908.00
2018-08-06T12:09:03.229Z,8688.00
2018-08-06T12:10:03.156Z,8592.00
2018-08-06T12:11:03.169Z,8852.00
2018-08-06T12:12:03.183Z,8608.00
2018-08-06T12:13:03.196Z,8892.00
2018-08-06T12:14:03.209Z,8732.00
2018-08-06T12:15:03.270Z,8516.00
2018-08-06T12:16:03.236Z,8612.00
2018-08-06T12:17:03.249Z,8648.00
2018-08-06T12:18:03.418Z,8612.00
2018-08-06T12:19:03.278Z,8144.00
2018-08-06T12:20:03.294Z,8444.00
2018-08-06T12:21:03.357Z,8408.00
2018-08-06T12:22:03.400Z,8628.00
2018-08-06T12:23:03.328Z,8564.00
2018-08-06T12:24:03.344Z,8596.00
2018-08-06T12:25:03.360Z,8608.00